GAF642 EKOD-EKYT
Flight info
| Callsign | GAF642 |
|---|---|
| Flight time | 0h 24m |
| Altitude | 20000 |
| Route | RIDSI DCT ABINO DCT LUTUS DCT RADIS DCT AAL |
| Aircraft | A400/H-SDE2E3FGHIJ4J5M1RWXY/LB1D1 |
Departure
| Time | 2026-05-06 17:36 |
|---|---|
| Airport | Odense Hans Christian Andersen Airport (EKOD) |
Arrival
| Time | 2026-05-06 18:00 |
|---|---|
| Airport | Aalborg Airport (EKYT) |
| Time | Latitude | Longitude | Altitude | Speed | Heading |
|---|---|---|---|---|---|
| 2026-05-06 17:01 | 55.47288 | 10.32699 | 74 ft | 0 kts | 303° |
| 2026-05-06 17:27 | 55.47288 | 10.32700 | 74 ft | 0 kts | 303° |
| 2026-05-06 17:30 | 55.47288 | 10.32699 | 74 ft | 1 kts | 304° |
| 2026-05-06 17:30 | 55.47287 | 10.32688 | 74 ft | 1 kts | 263° |
| 2026-05-06 17:30 | 55.47279 | 10.32683 | 62 ft | 1 kts | 202° |
| 2026-05-06 17:30 | 55.47273 | 10.32694 | 65 ft | 1 kts | 135° |
| 2026-05-06 17:31 | 55.47274 | 10.32707 | 62 ft | 1 kts | 82° |
| 2026-05-06 17:31 | 55.47277 | 10.32712 | 62 ft | 1 kts | 64° |
| 2026-05-06 17:31 | 55.47282 | 10.32725 | 74 ft | 3 kts | 58° |
| 2026-05-06 17:31 | 55.47297 | 10.32757 | 62 ft | 4 kts | 50° |
| 2026-05-06 17:32 | 55.47312 | 10.32781 | 70 ft | 3 kts | 25° |
| 2026-05-06 17:32 | 55.47336 | 10.32776 | 66 ft | 4 kts | 344° |
| 2026-05-06 17:32 | 55.47359 | 10.32753 | 70 ft | 5 kts | 325° |
| 2026-05-06 17:32 | 55.47396 | 10.32695 | 71 ft | 11 kts | 317° |
| 2026-05-06 17:33 | 55.47459 | 10.32555 | 66 ft | 19 kts | 277° |
| 2026-05-06 17:33 | 55.47394 | 10.32313 | 70 ft | 26 kts | 239° |
| 2026-05-06 17:33 | 55.47290 | 10.31994 | 61 ft | 33 kts | 240° |
| 2026-05-06 17:33 | 55.47166 | 10.31629 | 63 ft | 33 kts | 238° |
| 2026-05-06 17:34 | 55.47088 | 10.31393 | 58 ft | 7 kts | 256° |
| 2026-05-06 17:34 | 55.47099 | 10.31384 | 70 ft | 1 kts | 2° |
| 2026-05-06 17:34 | 55.47103 | 10.31393 | 64 ft | 1 kts | 45° |
| 2026-05-06 17:34 | 55.47103 | 10.31396 | 65 ft | 0 kts | 58° |
| 2026-05-06 17:35 | 55.47103 | 10.31397 | 65 ft | 0 kts | 58° |
| 2026-05-06 17:35 | 55.47271 | 10.31897 | 60 ft | 98 kts | 60° |
| 2026-05-06 17:36 | 55.48356 | 10.35016 | 1213 ft | 166 kts | 56° |
| 2026-05-06 17:36 | 55.49033 | 10.36788 | 2058 ft | 184 kts | 54° |
| 2026-05-06 17:36 | 55.49816 | 10.38690 | 2909 ft | 199 kts | 53° |
| 2026-05-06 17:36 | 55.50622 | 10.40795 | 3698 ft | 217 kts | 58° |
| 2026-05-06 17:37 | 55.51630 | 10.42891 | 4388 ft | 234 kts | 33° |
| 2026-05-06 17:37 | 55.53215 | 10.43600 | 5072 ft | 251 kts | 357° |
| 2026-05-06 17:37 | 55.54871 | 10.42412 | 5762 ft | 271 kts | 322° |
| 2026-05-06 17:37 | 55.56032 | 10.39705 | 6457 ft | 285 kts | 299° |
| 2026-05-06 17:38 | 55.56823 | 10.36426 | 7100 ft | 297 kts | 291° |
| 2026-05-06 17:38 | 55.57466 | 10.32915 | 7838 ft | 299 kts | 287° |
| 2026-05-06 17:38 | 55.58021 | 10.29465 | 9247 ft | 284 kts | 286° |
| 2026-05-06 17:38 | 55.58834 | 10.26369 | 10590 ft | 281 kts | 307° |
| 2026-05-06 17:39 | 55.60424 | 10.24214 | 11261 ft | 302 kts | 330° |
| 2026-05-06 17:39 | 55.62408 | 10.22612 | 11687 ft | 323 kts | 335° |
| 2026-05-06 17:39 | 55.64524 | 10.21098 | 12304 ft | 332 kts | 336° |
| 2026-05-06 17:39 | 55.66756 | 10.20092 | 12976 ft | 342 kts | 353° |
| 2026-05-06 17:40 | 55.69156 | 10.20261 | 13698 ft | 349 kts | 4° |
| 2026-05-06 17:40 | 55.71585 | 10.20773 | 14351 ft | 354 kts | 5° |
| 2026-05-06 17:40 | 55.74039 | 10.21337 | 15009 ft | 358 kts | 6° |
| 2026-05-06 17:40 | 55.76514 | 10.22129 | 15638 ft | 362 kts | 4° |
| 2026-05-06 17:41 | 55.79031 | 10.22082 | 16281 ft | 364 kts | 355° |
| 2026-05-06 17:41 | 55.81579 | 10.21928 | 16941 ft | 368 kts | 354° |
| 2026-05-06 17:41 | 55.84153 | 10.21776 | 17611 ft | 373 kts | 355° |
| 2026-05-06 17:41 | 55.86762 | 10.21660 | 18281 ft | 377 kts | 355° |
| 2026-05-06 17:42 | 55.89398 | 10.21572 | 18850 ft | 382 kts | 355° |
| 2026-05-06 17:42 | 55.92077 | 10.21502 | 19401 ft | 387 kts | 355° |
| 2026-05-06 17:42 | 55.94761 | 10.21441 | 19820 ft | 396 kts | 355° |
| 2026-05-06 17:42 | 55.97548 | 10.21383 | 20092 ft | 404 kts | 355° |
| 2026-05-06 17:43 | 56.00308 | 10.21337 | 20023 ft | 393 kts | 355° |
| 2026-05-06 17:43 | 56.03044 | 10.21290 | 19950 ft | 393 kts | 355° |
| 2026-05-06 17:43 | 56.05777 | 10.21241 | 19949 ft | 393 kts | 355° |
| 2026-05-06 17:43 | 56.08507 | 10.21192 | 19949 ft | 393 kts | 355° |
| 2026-05-06 17:44 | 56.11241 | 10.21143 | 19951 ft | 393 kts | 355° |
| 2026-05-06 17:44 | 56.13975 | 10.21094 | 19948 ft | 392 kts | 355° |
| 2026-05-06 17:44 | 56.16689 | 10.21046 | 19960 ft | 393 kts | 355° |
| 2026-05-06 17:44 | 56.19385 | 10.20997 | 19825 ft | 393 kts | 355° |
| 2026-05-06 17:45 | 56.22119 | 10.20949 | 19496 ft | 392 kts | 355° |
| 2026-05-06 17:45 | 56.24834 | 10.20901 | 19037 ft | 389 kts | 355° |
| 2026-05-06 17:45 | 56.27526 | 10.20854 | 18375 ft | 384 kts | 355° |
| 2026-05-06 17:45 | 56.30183 | 10.20808 | 17703 ft | 379 kts | 355° |
| 2026-05-06 17:46 | 56.32801 | 10.20762 | 17088 ft | 375 kts | 355° |
| 2026-05-06 17:46 | 56.35393 | 10.20715 | 16506 ft | 371 kts | 355° |
| 2026-05-06 17:46 | 56.37962 | 10.20668 | 15911 ft | 367 kts | 356° |
| 2026-05-06 17:46 | 56.40498 | 10.20622 | 15306 ft | 363 kts | 356° |
| 2026-05-06 17:47 | 56.42954 | 10.20577 | 14747 ft | 359 kts | 356° |
| 2026-05-06 17:47 | 56.45312 | 10.20535 | 14182 ft | 355 kts | 356° |
| 2026-05-06 17:47 | 56.47734 | 10.20491 | 13613 ft | 351 kts | 356° |
| 2026-05-06 17:47 | 56.50160 | 10.20446 | 13012 ft | 347 kts | 356° |
| 2026-05-06 17:48 | 56.52561 | 10.20401 | 12442 ft | 343 kts | 356° |
| 2026-05-06 17:48 | 56.54939 | 10.20357 | 11894 ft | 340 kts | 357° |
| 2026-05-06 17:48 | 56.57292 | 10.20314 | 11333 ft | 337 kts | 357° |
| 2026-05-06 17:48 | 56.59623 | 10.20272 | 10767 ft | 333 kts | 357° |
| 2026-05-06 17:49 | 56.61930 | 10.20229 | 10216 ft | 330 kts | 357° |
| 2026-05-06 17:49 | 56.64157 | 10.20191 | 10063 ft | 310 kts | 357° |
| 2026-05-06 17:49 | 56.66221 | 10.20157 | 9978 ft | 291 kts | 357° |
| 2026-05-06 17:49 | 56.68219 | 10.20121 | 9853 ft | 288 kts | 357° |
| 2026-05-06 17:50 | 56.70219 | 10.20081 | 9384 ft | 286 kts | 358° |
| 2026-05-06 17:50 | 56.72196 | 10.20043 | 8952 ft | 282 kts | 358° |
| 2026-05-06 17:50 | 56.74150 | 10.20005 | 8565 ft | 280 kts | 358° |
| 2026-05-06 17:50 | 56.76087 | 10.19969 | 8178 ft | 278 kts | 358° |
| 2026-05-06 17:51 | 56.78012 | 10.19933 | 7778 ft | 276 kts | 358° |
| 2026-05-06 17:51 | 56.79921 | 10.19897 | 7397 ft | 273 kts | 358° |
| 2026-05-06 17:51 | 56.81814 | 10.19862 | 7016 ft | 271 kts | 358° |
| 2026-05-06 17:51 | 56.83693 | 10.19827 | 6624 ft | 269 kts | 358° |
| 2026-05-06 17:52 | 56.85531 | 10.19793 | 6244 ft | 267 kts | 358° |
| 2026-05-06 17:52 | 56.87381 | 10.19759 | 5856 ft | 265 kts | 359° |
| 2026-05-06 17:52 | 56.89215 | 10.19724 | 5478 ft | 263 kts | 359° |
| 2026-05-06 17:52 | 56.91040 | 10.19690 | 5095 ft | 261 kts | 359° |
| 2026-05-06 17:53 | 56.92851 | 10.19656 | 4716 ft | 259 kts | 359° |
| 2026-05-06 17:53 | 56.94650 | 10.19623 | 4338 ft | 257 kts | 360° |
| 2026-05-06 17:53 | 56.96437 | 10.19589 | 3994 ft | 257 kts | 360° |
| 2026-05-06 17:53 | 56.98225 | 10.19556 | 3620 ft | 257 kts | 360° |
| 2026-05-06 17:54 | 57.00004 | 10.19523 | 3245 ft | 255 kts | 0° |
| 2026-05-06 17:54 | 57.01759 | 10.19489 | 2980 ft | 247 kts | 0° |
| 2026-05-06 17:54 | 57.03441 | 10.19457 | 2821 ft | 237 kts | 0° |
| 2026-05-06 17:54 | 57.05032 | 10.19426 | 2671 ft | 225 kts | 0° |
| 2026-05-06 17:55 | 57.06548 | 10.19396 | 2449 ft | 212 kts | 1° |
| 2026-05-06 17:55 | 57.07992 | 10.19343 | 2309 ft | 206 kts | 357° |
| 2026-05-06 17:55 | 57.09409 | 10.18965 | 2303 ft | 206 kts | 343° |
| 2026-05-06 17:55 | 57.10638 | 10.17650 | 2305 ft | 207 kts | 314° |
| 2026-05-06 17:56 | 57.11259 | 10.15296 | 2315 ft | 207 kts | 280° |
| 2026-05-06 17:56 | 57.11279 | 10.12640 | 2319 ft | 209 kts | 263° |
| 2026-05-06 17:56 | 57.11077 | 10.10002 | 2300 ft | 200 kts | 262° |
| 2026-05-06 17:56 | 57.10916 | 10.07603 | 2234 ft | 184 kts | 264° |
| 2026-05-06 17:57 | 57.10777 | 10.05275 | 1991 ft | 179 kts | 264° |
| 2026-05-06 17:57 | 57.10637 | 10.03045 | 1744 ft | 177 kts | 263° |
| 2026-05-06 17:57 | 57.10495 | 10.00850 | 1489 ft | 168 kts | 263° |
| 2026-05-06 17:57 | 57.10362 | 9.98777 | 1255 ft | 157 kts | 263° |
| 2026-05-06 17:58 | 57.10240 | 9.96884 | 1038 ft | 141 kts | 263° |
| 2026-05-06 17:58 | 57.10130 | 9.95161 | 838 ft | 133 kts | 263° |
| 2026-05-06 17:58 | 57.10022 | 9.93488 | 668 ft | 131 kts | 264° |
| 2026-05-06 17:58 | 57.09904 | 9.91826 | 484 ft | 130 kts | 264° |
| 2026-05-06 17:59 | 57.09799 | 9.90188 | 312 ft | 130 kts | 265° |
| 2026-05-06 17:59 | 57.09703 | 9.88557 | 149 ft | 130 kts | 265° |
| 2026-05-06 17:59 | 57.09603 | 9.86932 | 28 ft | 119 kts | 264° |
| 2026-05-06 17:59 | 57.09525 | 9.85766 | 26 ft | 69 kts | 265° |
| 2026-05-06 18:00 | 57.09482 | 9.85087 | 26 ft | 41 kts | 261° |
| 2026-05-06 18:00 | 57.09455 | 9.84660 | 28 ft | 26 kts | 264° |
| 2026-05-06 18:00 | 57.09437 | 9.84382 | 29 ft | 21 kts | 262° |
| 2026-05-06 18:00 | 57.09465 | 9.84207 | 26 ft | 12 kts | 316° |
| 2026-05-06 18:01 | 57.09528 | 9.84113 | 26 ft | 11 kts | 320° |
| 2026-05-06 18:01 | 57.09590 | 9.84022 | 29 ft | 12 kts | 324° |
| 2026-05-06 18:01 | 57.09667 | 9.84026 | 29 ft | 11 kts | 23° |
| 2026-05-06 18:01 | 57.09740 | 9.84084 | 26 ft | 12 kts | 22° |
| 2026-05-06 18:02 | 57.09818 | 9.84140 | 26 ft | 12 kts | 21° |
| 2026-05-06 18:02 | 57.09886 | 9.84229 | 26 ft | 12 kts | 62° |
| 2026-05-06 18:02 | 57.09864 | 9.84275 | 26 ft | 4 kts | 179° |
| 2026-05-06 18:02 | 57.09843 | 9.84274 | 26 ft | 0 kts | 181° |